sensor_id;sensor_type;location;lat;lon;timestamp;temperature;humidity
65378;SHT31;51982;51.042;13.806;2023-03-12T00:00:27;1.88;81.74
65378;SHT31;51982;51.042;13.806;2023-03-12T00:02:52;1.85;81.66
65378;SHT31;51982;51.042;13.806;2023-03-12T00:05:17;1.88;81.60
65378;SHT31;51982;51.042;13.806;2023-03-12T00:07:42;1.85;81.70
65378;SHT31;51982;51.042;13.806;2023-03-12T00:10:07;1.82;81.60
65378;SHT31;51982;51.042;13.806;2023-03-12T00:12:33;1.82;81.56
65378;SHT31;51982;51.042;13.806;2023-03-12T00:14:59;1.79;81.61
65378;SHT31;51982;51.042;13.806;2023-03-12T00:17:24;1.73;81.92
65378;SHT31;51982;51.042;13.806;2023-03-12T00:19:50;1.71;82.07
65378;SHT31;51982;51.042;13.806;2023-03-12T00:22:16;1.73;81.99
65378;SHT31;51982;51.042;13.806;2023-03-12T00:24:41;1.74;81.95
65378;SHT31;51982;51.042;13.806;2023-03-12T00:27:06;1.74;81.88
65378;SHT31;51982;51.042;13.806;2023-03-12T00:29:32;1.73;81.74
65378;SHT31;51982;51.042;13.806;2023-03-12T00:31:57;1.71;81.67
65378;SHT31;51982;51.042;13.806;2023-03-12T00:34:22;1.61;82.10
65378;SHT31;51982;51.042;13.806;2023-03-12T00:36:47;1.68;82.24
65378;SHT31;51982;51.042;13.806;2023-03-12T00:39:12;1.71;81.67
65378;SHT31;51982;51.042;13.806;2023-03-12T00:41:37;1.68;81.77
65378;SHT31;51982;51.042;13.806;2023-03-12T00:44:03;1.68;81.62
65378;SHT31;51982;51.042;13.806;2023-03-12T00:46:28;1.67;81.82
65378;SHT31;51982;51.042;13.806;2023-03-12T00:48:53;1.64;81.78
65378;SHT31;51982;51.042;13.806;2023-03-12T00:51:18;1.67;81.02
65378;SHT31;51982;51.042;13.806;2023-03-12T00:53:44;1.63;81.11
65378;SHT31;51982;51.042;13.806;2023-03-12T00:56:09;1.63;81.30
65378;SHT31;51982;51.042;13.806;2023-03-12T00:58:34;1.57;81.41
65378;SHT31;51982;51.042;13.806;2023-03-12T01:00:59;1.57;81.35
65378;SHT31;51982;51.042;13.806;2023-03-12T01:03:24;1.58;81.21
65378;SHT31;51982;51.042;13.806;2023-03-12T01:05:49;1.57;81.35
65378;SHT31;51982;51.042;13.806;2023-03-12T01:08:18;1.54;81.02
65378;SHT31;51982;51.042;13.806;2023-03-12T01:10:44;1.50;81.43
65378;SHT31;51982;51.042;13.806;2023-03-12T01:13:09;1.53;81.41
65378;SHT31;51982;51.042;13.806;2023-03-12T01:15:34;1.53;81.51
65378;SHT31;51982;51.042;13.806;2023-03-12T01:18:00;1.50;81.63
65378;SHT31;51982;51.042;13.806;2023-03-12T01:20:25;1.47;81.71
65378;SHT31;51982;51.042;13.806;2023-03-12T01:22:50;1.47;81.53
65378;SHT31;51982;51.042;13.806;2023-03-12T01:25:15;1.47;81.58
65378;SHT31;51982;51.042;13.806;2023-03-12T01:27:40;1.50;81.44
65378;SHT31;51982;51.042;13.806;2023-03-12T01:30:06;1.48;81.55
65378;SHT31;51982;51.042;13.806;2023-03-12T01:32:31;1.40;81.30
65378;SHT31;51982;51.042;13.806;2023-03-12T01:34:57;1.40;81.38
65378;SHT31;51982;51.042;13.806;2023-03-12T01:37:22;1.37;81.22
65378;SHT31;51982;51.042;13.806;2023-03-12T01:39:47;1.36;81.04
65378;SHT31;51982;51.042;13.806;2023-03-12T01:42:12;1.39;81.01
65378;SHT31;51982;51.042;13.806;2023-03-12T01:45:00;1.36;80.85
65378;SHT31;51982;51.042;13.806;2023-03-12T01:47:26;1.36;81.03
65378;SHT31;51982;51.042;13.806;2023-03-12T01:49:52;1.36;81.26
65378;SHT31;51982;51.042;13.806;2023-03-12T01:52:31;1.34;81.15
65378;SHT31;51982;51.042;13.806;2023-03-12T01:55:02;1.36;80.98
65378;SHT31;51982;51.042;13.806;2023-03-12T02:00:10;1.34;81.25
65378;SHT31;51982;51.042;13.806;2023-03-12T02:02:36;1.29;81.20
65378;SHT31;51982;51.042;13.806;2023-03-12T02:05:13;1.30;81.35
65378;SHT31;51982;51.042;13.806;2023-03-12T02:07:41;1.30;81.10
65378;SHT31;51982;51.042;13.806;2023-03-12T02:10:06;1.23;81.31
65378;SHT31;51982;51.042;13.806;2023-03-12T02:12:31;1.26;81.23
65378;SHT31;51982;51.042;13.806;2023-03-12T02:14:57;1.23;81.47
65378;SHT31;51982;51.042;13.806;2023-03-12T02:17:22;1.22;81.27
65378;SHT31;51982;51.042;13.806;2023-03-12T02:22:15;1.19;81.09
65378;SHT31;51982;51.042;13.806;2023-03-12T02:24:43;1.23;81.27
65378;SHT31;51982;51.042;13.806;2023-03-12T02:27:10;1.22;80.90
65378;SHT31;51982;51.042;13.806;2023-03-12T02:29:35;1.17;80.56
65378;SHT31;51982;51.042;13.806;2023-03-12T02:32:01;1.20;80.53
65378;SHT31;51982;51.042;13.806;2023-03-12T02:34:28;1.17;80.72
65378;SHT31;51982;51.042;13.806;2023-03-12T02:36:53;1.20;80.65
65378;SHT31;51982;51.042;13.806;2023-03-12T02:39:18;1.16;80.36
65378;SHT31;51982;51.042;13.806;2023-03-12T02:41:45;1.13;80.45
65378;SHT31;51982;51.042;13.806;2023-03-12T02:44:17;1.13;80.61
65378;SHT31;51982;51.042;13.806;2023-03-12T02:46:44;1.09;80.62
65378;SHT31;51982;51.042;13.806;2023-03-12T02:49:09;1.07;80.81
65378;SHT31;51982;51.042;13.806;2023-03-12T02:51:38;1.07;80.74
65378;SHT31;51982;51.042;13.806;2023-03-12T02:54:04;1.06;80.52
65378;SHT31;51982;51.042;13.806;2023-03-12T02:56:29;1.00;80.48
65378;SHT31;51982;51.042;13.806;2023-03-12T02:58:54;1.04;80.35
65378;SHT31;51982;51.042;13.806;2023-03-12T03:01:20;1.06;80.36
65378;SHT31;51982;51.042;13.806;2023-03-12T03:03:45;1.04;80.49
65378;SHT31;51982;51.042;13.806;2023-03-12T03:06:11;1.04;80.48
65378;SHT31;51982;51.042;13.806;2023-03-12T03:08:36;1.03;80.54
65378;SHT31;51982;51.042;13.806;2023-03-12T03:11:02;1.02;80.42
65378;SHT31;51982;51.042;13.806;2023-03-12T03:13:28;0.96;80.34
65378;SHT31;51982;51.042;13.806;2023-03-12T03:15:53;0.93;80.09
65378;SHT31;51982;51.042;13.806;2023-03-12T03:18:18;0.92;79.91
65378;SHT31;51982;51.042;13.806;2023-03-12T03:20:43;0.92;80.06
65378;SHT31;51982;51.042;13.806;2023-03-12T03:23:09;0.93;80.14
65378;SHT31;51982;51.042;13.806;2023-03-12T03:25:34;0.96;80.28
65378;SHT31;51982;51.042;13.806;2023-03-12T03:27:59;0.97;80.13
65378;SHT31;51982;51.042;13.806;2023-03-12T03:30:24;0.96;79.63
65378;SHT31;51982;51.042;13.806;2023-03-12T03:32:50;1.02;78.86
65378;SHT31;51982;51.042;13.806;2023-03-12T03:35:15;1.03;79.05
65378;SHT31;51982;51.042;13.806;2023-03-12T03:37:41;1.00;80.19
65378;SHT31;51982;51.042;13.806;2023-03-12T03:40:06;0.93;80.30
65378;SHT31;51982;51.042;13.806;2023-03-12T03:42:35;0.95;79.72
65378;SHT31;51982;51.042;13.806;2023-03-12T03:45:00;1.00;79.64
65378;SHT31;51982;51.042;13.806;2023-03-12T03:47:25;1.02;79.99
65378;SHT31;51982;51.042;13.806;2023-03-12T03:49:51;0.99;80.09
65378;SHT31;51982;51.042;13.806;2023-03-12T03:52:16;0.99;80.03
65378;SHT31;51982;51.042;13.806;2023-03-12T03:54:41;0.96;80.06
65378;SHT31;51982;51.042;13.806;2023-03-12T03:57:06;0.95;80.00
65378;SHT31;51982;51.042;13.806;2023-03-12T03:59:31;0.93;79.90
65378;SHT31;51982;51.042;13.806;2023-03-12T04:01:56;0.93;79.77
65378;SHT31;51982;51.042;13.806;2023-03-12T04:04:22;0.96;79.74
65378;SHT31;51982;51.042;13.806;2023-03-12T04:06:47;0.93;79.93
65378;SHT31;51982;51.042;13.806;2023-03-12T04:09:12;0.86;79.91
65378;SHT31;51982;51.042;13.806;2023-03-12T04:11:37;0.89;80.23
65378;SHT31;51982;51.042;13.806;2023-03-12T04:14:03;0.91;80.06
65378;SHT31;51982;51.042;13.806;2023-03-12T04:16:28;0.91;79.82
65378;SHT31;51982;51.042;13.806;2023-03-12T04:18:53;0.93;79.76
65378;SHT31;51982;51.042;13.806;2023-03-12T04:21:18;0.92;79.69
65378;SHT31;51982;51.042;13.806;2023-03-12T04:23:43;0.89;79.79
65378;SHT31;51982;51.042;13.806;2023-03-12T04:26:09;0.93;79.79
65378;SHT31;51982;51.042;13.806;2023-03-12T04:28:34;0.89;79.82
65378;SHT31;51982;51.042;13.806;2023-03-12T04:31:00;0.88;79.96
65378;SHT31;51982;51.042;13.806;2023-03-12T04:33:26;0.86;79.79
65378;SHT31;51982;51.042;13.806;2023-03-12T04:35:51;0.85;79.87
65378;SHT31;51982;51.042;13.806;2023-03-12T04:38:17;0.86;80.24
65378;SHT31;51982;51.042;13.806;2023-03-12T04:40:42;0.83;80.42
65378;SHT31;51982;51.042;13.806;2023-03-12T04:43:08;0.81;79.89
65378;SHT31;51982;51.042;13.806;2023-03-12T04:45:33;0.83;79.90
65378;SHT31;51982;51.042;13.806;2023-03-12T04:47:58;0.83;80.05
65378;SHT31;51982;51.042;13.806;2023-03-12T04:50:23;0.79;80.44
65378;SHT31;51982;51.042;13.806;2023-03-12T04:52:49;0.82;80.56
65378;SHT31;51982;51.042;13.806;2023-03-12T04:55:14;0.85;80.63
65378;SHT31;51982;51.042;13.806;2023-03-12T04:57:39;0.81;80.70
65378;SHT31;51982;51.042;13.806;2023-03-12T05:00:05;0.83;81.03
65378;SHT31;51982;51.042;13.806;2023-03-12T05:02:35;0.83;80.99
65378;SHT31;51982;51.042;13.806;2023-03-12T05:05:00;0.83;80.90
65378;SHT31;51982;51.042;13.806;2023-03-12T05:07:25;0.82;80.94
65378;SHT31;51982;51.042;13.806;2023-03-12T05:09:51;0.83;80.92
65378;SHT31;51982;51.042;13.806;2023-03-12T05:12:16;0.81;81.04
65378;SHT31;51982;51.042;13.806;2023-03-12T05:14:41;0.76;81.00
65378;SHT31;51982;51.042;13.806;2023-03-12T05:17:06;0.81;81.06
65378;SHT31;51982;51.042;13.806;2023-03-12T05:19:32;0.81;81.25
65378;SHT31;51982;51.042;13.806;2023-03-12T05:21:57;0.79;81.14
65378;SHT31;51982;51.042;13.806;2023-03-12T05:24:22;0.81;81.09
65378;SHT31;51982;51.042;13.806;2023-03-12T05:26:47;0.81;81.25
65378;SHT31;51982;51.042;13.806;2023-03-12T05:29:12;0.81;81.28
65378;SHT31;51982;51.042;13.806;2023-03-12T05:31:37;0.82;81.31
65378;SHT31;51982;51.042;13.806;2023-03-12T05:34:03;0.88;81.23
65378;SHT31;51982;51.042;13.806;2023-03-12T05:36:28;0.92;81.06
65378;SHT31;51982;51.042;13.806;2023-03-12T05:38:53;0.97;81.31
65378;SHT31;51982;51.042;13.806;2023-03-12T05:41:22;1.02;82.99
65378;SHT31;51982;51.042;13.806;2023-03-12T05:43:48;1.02;81.76
65378;SHT31;51982;51.042;13.806;2023-03-12T05:46:13;1.06;81.20
65378;SHT31;51982;51.042;13.806;2023-03-12T05:48:39;1.10;80.97
65378;SHT31;51982;51.042;13.806;2023-03-12T05:51:04;1.13;80.58
65378;SHT31;51982;51.042;13.806;2023-03-12T05:53:29;1.13;80.67
65378;SHT31;51982;51.042;13.806;2023-03-12T05:56:01;1.19;80.88
65378;SHT31;51982;51.042;13.806;2023-03-12T05:58:27;1.43;80.60
65378;SHT31;51982;51.042;13.806;2023-03-12T06:00:52;1.50;79.99
65378;SHT31;51982;51.042;13.806;2023-03-12T06:03:17;1.53;79.90
65378;SHT31;51982;51.042;13.806;2023-03-12T06:05:43;1.50;79.75
65378;SHT31;51982;51.042;13.806;2023-03-12T06:08:08;1.50;79.58
65378;SHT31;51982;51.042;13.806;2023-03-12T06:10:33;1.51;79.20
65378;SHT31;51982;51.042;13.806;2023-03-12T06:13:01;1.54;79.16
65378;SHT31;51982;51.042;13.806;2023-03-12T06:15:26;1.61;79.45
65378;SHT31;51982;51.042;13.806;2023-03-12T06:17:51;1.74;78.92
65378;SHT31;51982;51.042;13.806;2023-03-12T06:20:16;1.77;78.17
65378;SHT31;51982;51.042;13.806;2023-03-12T06:22:42;1.89;77.58
65378;SHT31;51982;51.042;13.806;2023-03-12T06:25:07;2.05;77.00
65378;SHT31;51982;51.042;13.806;2023-03-12T06:27:32;2.18;77.01
65378;SHT31;51982;51.042;13.806;2023-03-12T06:29:58;2.30;76.90
65378;SHT31;51982;51.042;13.806;2023-03-12T06:32:23;2.46;77.06
65378;SHT31;51982;51.042;13.806;2023-03-12T06:34:48;2.59;77.28
65378;SHT31;51982;51.042;13.806;2023-03-12T06:37:14;2.64;76.46
65378;SHT31;51982;51.042;13.806;2023-03-12T06:39:39;2.66;76.67
65378;SHT31;51982;51.042;13.806;2023-03-12T06:42:04;2.64;76.75
65378;SHT31;51982;51.042;13.806;2023-03-12T06:44:29;2.60;76.53
65378;SHT31;51982;51.042;13.806;2023-03-12T06:46:55;2.57;76.33
65378;SHT31;51982;51.042;13.806;2023-03-12T06:49:20;2.64;76.15
65378;SHT31;51982;51.042;13.806;2023-03-12T06:51:45;2.72;76.78
65378;SHT31;51982;51.042;13.806;2023-03-12T06:54:10;2.70;76.21
65378;SHT31;51982;51.042;13.806;2023-03-12T06:56:36;2.72;76.69
65378;SHT31;51982;51.042;13.806;2023-03-12T06:59:02;2.75;76.86
65378;SHT31;51982;51.042;13.806;2023-03-12T07:01:27;2.77;76.39
65378;SHT31;51982;51.042;13.806;2023-03-12T07:03:52;2.77;76.06
65378;SHT31;51982;51.042;13.806;2023-03-12T07:06:18;2.76;75.55
65378;SHT31;51982;51.042;13.806;2023-03-12T07:08:44;2.81;75.92
65378;SHT31;51982;51.042;13.806;2023-03-12T07:11:09;2.84;75.57
65378;SHT31;51982;51.042;13.806;2023-03-12T07:13:35;2.84;75.32
65378;SHT31;51982;51.042;13.806;2023-03-12T07:16:00;2.90;75.24
65378;SHT31;51982;51.042;13.806;2023-03-12T07:18:25;2.96;74.84
65378;SHT31;51982;51.042;13.806;2023-03-12T07:20:51;3.03;74.89
65378;SHT31;51982;51.042;13.806;2023-03-12T07:23:16;2.97;74.86
65378;SHT31;51982;51.042;13.806;2023-03-12T07:25:43;2.91;75.90
65378;SHT31;51982;51.042;13.806;2023-03-12T07:28:08;2.86;76.47
65378;SHT31;51982;51.042;13.806;2023-03-12T07:30:34;2.87;76.60
65378;SHT31;51982;51.042;13.806;2023-03-12T07:33:00;2.90;76.76
65378;SHT31;51982;51.042;13.806;2023-03-12T07:35:25;2.94;75.43
65378;SHT31;51982;51.042;13.806;2023-03-12T07:37:50;3.00;75.17
65378;SHT31;51982;51.042;13.806;2023-03-12T07:40:16;3.08;75.58
65378;SHT31;51982;51.042;13.806;2023-03-12T07:42:41;3.17;75.21
65378;SHT31;51982;51.042;13.806;2023-03-12T07:45:06;3.28;74.98
65378;SHT31;51982;51.042;13.806;2023-03-12T07:47:32;3.32;75.37
65378;SHT31;51982;51.042;13.806;2023-03-12T07:49:57;3.54;74.67
65378;SHT31;51982;51.042;13.806;2023-03-12T07:52:22;3.56;73.34
65378;SHT31;51982;51.042;13.806;2023-03-12T07:54:47;3.71;73.34
65378;SHT31;51982;51.042;13.806;2023-03-12T07:57:12;3.92;73.54
65378;SHT31;51982;51.042;13.806;2023-03-12T07:59:38;4.06;72.56
65378;SHT31;51982;51.042;13.806;2023-03-12T08:02:03;4.18;73.20
65378;SHT31;51982;51.042;13.806;2023-03-12T08:04:28;4.18;71.94
65378;SHT31;51982;51.042;13.806;2023-03-12T08:06:53;4.32;72.26
65378;SHT31;51982;51.042;13.806;2023-03-12T08:09:18;4.43;72.08
65378;SHT31;51982;51.042;13.806;2023-03-12T08:11:44;4.50;71.71
65378;SHT31;51982;51.042;13.806;2023-03-12T08:14:09;4.60;71.57
65378;SHT31;51982;51.042;13.806;2023-03-12T08:16:34;4.68;70.95
65378;SHT31;51982;51.042;13.806;2023-03-12T08:18:59;4.74;70.03
65378;SHT31;51982;51.042;13.806;2023-03-12T08:21:30;4.67;70.01
65378;SHT31;51982;51.042;13.806;2023-03-12T08:23:56;4.67;70.50
65378;SHT31;51982;51.042;13.806;2023-03-12T08:26:21;4.65;71.02
65378;SHT31;51982;51.042;13.806;2023-03-12T08:28:46;4.67;70.26
65378;SHT31;51982;51.042;13.806;2023-03-12T08:31:11;4.68;69.60
65378;SHT31;51982;51.042;13.806;2023-03-12T08:33:36;4.78;69.74
65378;SHT31;51982;51.042;13.806;2023-03-12T08:36:05;4.84;69.08
65378;SHT31;51982;51.042;13.806;2023-03-12T08:38:30;4.95;68.95
65378;SHT31;51982;51.042;13.806;2023-03-12T08:40:59;5.00;68.98
65378;SHT31;51982;51.042;13.806;2023-03-12T08:43:25;4.99;68.39
65378;SHT31;51982;51.042;13.806;2023-03-12T08:45:57;5.23;68.97
65378;SHT31;51982;51.042;13.806;2023-03-12T08:48:23;5.51;67.97
65378;SHT31;51982;51.042;13.806;2023-03-12T08:50:48;5.74;67.99
65378;SHT31;51982;51.042;13.806;2023-03-12T08:53:13;5.87;68.02
65378;SHT31;51982;51.042;13.806;2023-03-12T08:55:39;5.87;67.41
65378;SHT31;51982;51.042;13.806;2023-03-12T08:58:04;5.97;67.34
65378;SHT31;51982;51.042;13.806;2023-03-12T09:00:29;6.02;66.77
65378;SHT31;51982;51.042;13.806;2023-03-12T09:02:54;6.12;67.32
65378;SHT31;51982;51.042;13.806;2023-03-12T09:05:22;6.14;67.60
65378;SHT31;51982;51.042;13.806;2023-03-12T09:07:52;6.17;67.98
65378;SHT31;51982;51.042;13.806;2023-03-12T09:10:17;6.21;67.67
65378;SHT31;51982;51.042;13.806;2023-03-12T09:12:42;6.26;67.91
65378;SHT31;51982;51.042;13.806;2023-03-12T09:15:09;6.48;67.85
65378;SHT31;51982;51.042;13.806;2023-03-12T09:17:34;6.59;67.51
65378;SHT31;51982;51.042;13.806;2023-03-12T09:19:59;6.59;68.01
65378;SHT31;51982;51.042;13.806;2023-03-12T09:22:25;6.43;67.40
65378;SHT31;51982;51.042;13.806;2023-03-12T09:24:50;6.31;66.89
65378;SHT31;51982;51.042;13.806;2023-03-12T09:27:15;6.31;67.25
65378;SHT31;51982;51.042;13.806;2023-03-12T09:29:40;6.34;67.57
65378;SHT31;51982;51.042;13.806;2023-03-12T09:32:06;6.38;66.63
65378;SHT31;51982;51.042;13.806;2023-03-12T09:34:31;6.49;65.86
65378;SHT31;51982;51.042;13.806;2023-03-12T09:36:59;6.57;65.09
65378;SHT31;51982;51.042;13.806;2023-03-12T09:39:26;6.55;63.87
65378;SHT31;51982;51.042;13.806;2023-03-12T09:41:52;6.56;64.09
65378;SHT31;51982;51.042;13.806;2023-03-12T09:46:50;6.65;64.03
65378;SHT31;51982;51.042;13.806;2023-03-12T09:49:17;6.71;63.52
65378;SHT31;51982;51.042;13.806;2023-03-12T09:51:44;6.75;62.03
65378;SHT31;51982;51.042;13.806;2023-03-12T09:54:33;6.77;62.02
65378;SHT31;51982;51.042;13.806;2023-03-12T09:57:02;6.82;62.34
65378;SHT31;51982;51.042;13.806;2023-03-12T09:59:31;6.87;62.00
65378;SHT31;51982;51.042;13.806;2023-03-12T10:01:58;6.93;60.97
65378;SHT31;51982;51.042;13.806;2023-03-12T10:06:56;7.10;60.34
65378;SHT31;51982;51.042;13.806;2023-03-12T10:12:42;7.08;58.46
65378;SHT31;51982;51.042;13.806;2023-03-12T10:14:55;7.13;59.62
65378;SHT31;51982;51.042;13.806;2023-03-12T10:17:37;7.04;58.97
65378;SHT31;51982;51.042;13.806;2023-03-12T10:20:16;7.17;58.53
65378;SHT31;51982;51.042;13.806;2023-03-12T10:27:58;7.35;58.00
65378;SHT31;51982;51.042;13.806;2023-03-12T10:30:27;7.45;58.00
65378;SHT31;51982;51.042;13.806;2023-03-12T10:33:03;7.57;58.64
65378;SHT31;51982;51.042;13.806;2023-03-12T10:35:30;7.58;58.38
65378;SHT31;51982;51.042;13.806;2023-03-12T10:37:56;7.57;57.79
65378;SHT31;51982;51.042;13.806;2023-03-12T10:40:24;7.62;56.13
65378;SHT31;51982;51.042;13.806;2023-03-12T10:42:49;7.74;57.29
65378;SHT31;51982;51.042;13.806;2023-03-12T10:45:17;7.75;55.98
65378;SHT31;51982;51.042;13.806;2023-03-12T10:47:47;7.81;57.68
65378;SHT31;51982;51.042;13.806;2023-03-12T10:50:15;7.90;56.51
65378;SHT31;51982;51.042;13.806;2023-03-12T10:52:41;7.98;57.44
65378;SHT31;51982;51.042;13.806;2023-03-12T10:57:41;8.23;54.38
65378;SHT31;51982;51.042;13.806;2023-03-12T11:00:07;8.39;54.94
65378;SHT31;51982;51.042;13.806;2023-03-12T11:02:40;8.44;55.71
65378;SHT31;51982;51.042;13.806;2023-03-12T11:05:28;8.59;55.36
65378;SHT31;51982;51.042;13.806;2023-03-12T11:07:51;8.71;56.08
65378;SHT31;51982;51.042;13.806;2023-03-12T11:10:21;8.59;54.38
65378;SHT31;51982;51.042;13.806;2023-03-12T11:12:53;8.67;55.97
65378;SHT31;51982;51.042;13.806;2023-03-12T11:15:30;8.78;56.26
65378;SHT31;51982;51.042;13.806;2023-03-12T11:20:41;9.04;55.92
65378;SHT31;51982;51.042;13.806;2023-03-12T11:23:14;9.08;55.72
65378;SHT31;51982;51.042;13.806;2023-03-12T11:25:39;9.05;55.66
65378;SHT31;51982;51.042;13.806;2023-03-12T11:28:05;9.04;56.11
65378;SHT31;51982;51.042;13.806;2023-03-12T11:30:34;9.00;55.26
65378;SHT31;51982;51.042;13.806;2023-03-12T11:33:02;9.05;56.26
65378;SHT31;51982;51.042;13.806;2023-03-12T11:38:38;9.19;55.71
65378;SHT31;51982;51.042;13.806;2023-03-12T11:41:18;9.12;55.44
65378;SHT31;51982;51.042;13.806;2023-03-12T11:46:26;9.14;54.37
65378;SHT31;51982;51.042;13.806;2023-03-12T11:54:05;9.12;54.07
65378;SHT31;51982;51.042;13.806;2023-03-12T11:56:40;9.05;54.64
65378;SHT31;51982;51.042;13.806;2023-03-12T11:59:21;8.89;54.07
65378;SHT31;51982;51.042;13.806;2023-03-12T12:07:12;8.87;54.15
65378;SHT31;51982;51.042;13.806;2023-03-12T12:17:21;9.00;54.56
65378;SHT31;51982;51.042;13.806;2023-03-12T12:27:42;9.21;54.49
65378;SHT31;51982;51.042;13.806;2023-03-12T12:30:21;9.26;54.82
65378;SHT31;51982;51.042;13.806;2023-03-12T12:33:39;9.22;53.68
65378;SHT31;51982;51.042;13.806;2023-03-12T12:35:37;9.29;55.64
65378;SHT31;51982;51.042;13.806;2023-03-12T12:40:35;9.53;54.76
65378;SHT31;51982;51.042;13.806;2023-03-12T12:43:09;9.65;55.47
65378;SHT31;51982;51.042;13.806;2023-03-12T12:45:40;9.56;55.14
65378;SHT31;51982;51.042;13.806;2023-03-12T12:48:06;9.63;55.79
65378;SHT31;51982;51.042;13.806;2023-03-12T12:50:34;9.63;55.60
65378;SHT31;51982;51.042;13.806;2023-03-12T12:58:37;9.67;56.43
65378;SHT31;51982;51.042;13.806;2023-03-12T13:01:04;9.75;56.73
65378;SHT31;51982;51.042;13.806;2023-03-12T13:03:30;9.67;56.94
65378;SHT31;51982;51.042;13.806;2023-03-12T13:05:56;9.75;57.65
65378;SHT31;51982;51.042;13.806;2023-03-12T13:10:56;9.66;56.84
65378;SHT31;51982;51.042;13.806;2023-03-12T13:13:22;9.67;57.51
65378;SHT31;51982;51.042;13.806;2023-03-12T13:15:47;9.72;57.93
65378;SHT31;51982;51.042;13.806;2023-03-12T13:23:35;9.55;57.53
65378;SHT31;51982;51.042;13.806;2023-03-12T13:26:17;9.59;57.74
65378;SHT31;51982;51.042;13.806;2023-03-12T13:33:53;9.53;57.66
65378;SHT31;51982;51.042;13.806;2023-03-12T13:36:23;9.52;57.20
65378;SHT31;51982;51.042;13.806;2023-03-12T13:38:56;9.53;56.74
65378;SHT31;51982;51.042;13.806;2023-03-12T13:41:29;9.49;56.97
65378;SHT31;51982;51.042;13.806;2023-03-12T13:43:55;9.53;56.51
65378;SHT31;51982;51.042;13.806;2023-03-12T13:46:34;9.57;56.53
65378;SHT31;51982;51.042;13.806;2023-03-12T13:49:03;9.60;56.85
65378;SHT31;51982;51.042;13.806;2023-03-12T13:51:29;9.69;57.17
65378;SHT31;51982;51.042;13.806;2023-03-12T13:53:57;9.75;56.84
65378;SHT31;51982;51.042;13.806;2023-03-12T13:56:29;9.85;57.77
65378;SHT31;51982;51.042;13.806;2023-03-12T13:58:56;9.93;57.24
65378;SHT31;51982;51.042;13.806;2023-03-12T14:01:23;9.87;56.24
65378;SHT31;51982;51.042;13.806;2023-03-12T14:03:55;9.75;56.42
65378;SHT31;51982;51.042;13.806;2023-03-12T14:06:21;9.65;56.33
65378;SHT31;51982;51.042;13.806;2023-03-12T14:09:08;9.50;56.57
65378;SHT31;51982;51.042;13.806;2023-03-12T14:14:26;9.50;56.94
65378;SHT31;51982;51.042;13.806;2023-03-12T14:16:54;9.46;57.32
65378;SHT31;51982;51.042;13.806;2023-03-12T14:19:27;9.39;58.34
65378;SHT31;51982;51.042;13.806;2023-03-12T14:21:54;9.32;59.48
65378;SHT31;51982;51.042;13.806;2023-03-12T14:24:39;9.43;60.23
65378;SHT31;51982;51.042;13.806;2023-03-12T14:27:05;9.42;59.68
65378;SHT31;51982;51.042;13.806;2023-03-12T14:29:42;9.42;59.86
65378;SHT31;51982;51.042;13.806;2023-03-12T14:32:21;9.31;60.54
65378;SHT31;51982;51.042;13.806;2023-03-12T14:34:52;9.19;61.89
65378;SHT31;51982;51.042;13.806;2023-03-12T14:37:19;9.16;62.46
65378;SHT31;51982;51.042;13.806;2023-03-12T14:42:33;9.14;64.07
65378;SHT31;51982;51.042;13.806;2023-03-12T14:45:02;9.05;65.41
65378;SHT31;51982;51.042;13.806;2023-03-12T14:47:39;9.04;66.09
65378;SHT31;51982;51.042;13.806;2023-03-12T14:50:05;9.00;66.94
65378;SHT31;51982;51.042;13.806;2023-03-12T14:52:30;8.95;67.96
65378;SHT31;51982;51.042;13.806;2023-03-12T14:54:58;8.92;68.75
65378;SHT31;51982;51.042;13.806;2023-03-12T14:57:24;8.98;68.99
65378;SHT31;51982;51.042;13.806;2023-03-12T14:59:59;8.88;70.10
65378;SHT31;51982;51.042;13.806;2023-03-12T15:02:25;8.88;71.02
65378;SHT31;51982;51.042;13.806;2023-03-12T15:04:51;8.73;72.07
65378;SHT31;51982;51.042;13.806;2023-03-12T15:07:20;8.60;72.65
65378;SHT31;51982;51.042;13.806;2023-03-12T15:09:47;8.67;73.17
65378;SHT31;51982;51.042;13.806;2023-03-12T15:12:17;8.56;73.49
65378;SHT31;51982;51.042;13.806;2023-03-12T15:14:43;8.56;73.62
65378;SHT31;51982;51.042;13.806;2023-03-12T15:17:13;8.47;73.88
65378;SHT31;51982;51.042;13.806;2023-03-12T15:19:39;8.51;74.16
65378;SHT31;51982;51.042;13.806;2023-03-12T15:22:13;8.51;74.10
65378;SHT31;51982;51.042;13.806;2023-03-12T15:24:39;8.40;74.27
65378;SHT31;51982;51.042;13.806;2023-03-12T15:29:48;8.33;74.40
65378;SHT31;51982;51.042;13.806;2023-03-12T15:32:14;8.23;74.88
65378;SHT31;51982;51.042;13.806;2023-03-12T15:34:40;8.25;74.88
65378;SHT31;51982;51.042;13.806;2023-03-12T15:39:53;8.20;75.64
65378;SHT31;51982;51.042;13.806;2023-03-12T15:42:23;8.22;75.37
65378;SHT31;51982;51.042;13.806;2023-03-12T15:44:55;8.25;75.61
65378;SHT31;51982;51.042;13.806;2023-03-12T15:47:28;8.25;75.31
65378;SHT31;51982;51.042;13.806;2023-03-12T15:49:57;8.25;75.19
65378;SHT31;51982;51.042;13.806;2023-03-12T15:52:30;8.20;74.98
65378;SHT31;51982;51.042;13.806;2023-03-12T15:57:35;8.25;74.95
65378;SHT31;51982;51.042;13.806;2023-03-12T16:02:49;8.29;75.21
65378;SHT31;51982;51.042;13.806;2023-03-12T16:05:14;8.29;75.19
65378;SHT31;51982;51.042;13.806;2023-03-12T16:07:39;8.23;74.74
65378;SHT31;51982;51.042;13.806;2023-03-12T16:10:05;8.30;74.50
65378;SHT31;51982;51.042;13.806;2023-03-12T16:12:31;8.26;74.49
65378;SHT31;51982;51.042;13.806;2023-03-12T16:14:56;8.25;74.77
65378;SHT31;51982;51.042;13.806;2023-03-12T16:17:21;8.20;74.88
65378;SHT31;51982;51.042;13.806;2023-03-12T16:19:47;8.23;74.80
65378;SHT31;51982;51.042;13.806;2023-03-12T16:22:12;8.14;74.82
65378;SHT31;51982;51.042;13.806;2023-03-12T16:24:38;8.09;74.59
65378;SHT31;51982;51.042;13.806;2023-03-12T16:27:03;8.10;75.05
65378;SHT31;51982;51.042;13.806;2023-03-12T16:29:35;8.10;74.80
65378;SHT31;51982;51.042;13.806;2023-03-12T16:32:00;8.07;75.31
65378;SHT31;51982;51.042;13.806;2023-03-12T16:34:26;8.05;75.51
65378;SHT31;51982;51.042;13.806;2023-03-12T16:36:52;8.03;75.21
65378;SHT31;51982;51.042;13.806;2023-03-12T16:39:17;7.98;75.25
65378;SHT31;51982;51.042;13.806;2023-03-12T16:41:42;8.05;75.07
65378;SHT31;51982;51.042;13.806;2023-03-12T16:44:08;8.02;75.11
65378;SHT31;51982;51.042;13.806;2023-03-12T16:46:37;8.00;75.03
65378;SHT31;51982;51.042;13.806;2023-03-12T16:49:02;8.03;74.87
65378;SHT31;51982;51.042;13.806;2023-03-12T16:51:28;7.98;75.18
65378;SHT31;51982;51.042;13.806;2023-03-12T16:53:53;8.00;75.37
65378;SHT31;51982;51.042;13.806;2023-03-12T16:56:22;7.98;75.17
65378;SHT31;51982;51.042;13.806;2023-03-12T16:58:48;7.99;75.06
65378;SHT31;51982;51.042;13.806;2023-03-12T17:01:15;7.93;74.89